sensor_id;sensor_type;location;lat;lon;timestamp;P1;durP1;ratioP1;P2;durP2;ratioP2
13244;SDS011;6689;53.400;12.486;2023-05-09T00:00:32;7.82;;;4.07;;
13244;SDS011;6689;53.400;12.486;2023-05-09T00:02:59;5.40;;;3.85;;
13244;SDS011;6689;53.400;12.486;2023-05-09T00:05:30;6.38;;;4.20;;
13244;SDS011;6689;53.400;12.486;2023-05-09T00:07:57;6.25;;;4.38;;
13244;SDS011;6689;53.400;12.486;2023-05-09T00:10:25;7.43;;;4.38;;
13244;SDS011;6689;53.400;12.486;2023-05-09T00:12:52;7.38;;;4.03;;
13244;SDS011;6689;53.400;12.486;2023-05-09T00:15:21;6.15;;;4.20;;
13244;SDS011;6689;53.400;12.486;2023-05-09T00:17:50;5.72;;;4.28;;
13244;SDS011;6689;53.400;12.486;2023-05-09T00:20:18;6.00;;;4.13;;
13244;SDS011;6689;53.400;12.486;2023-05-09T00:22:46;5.85;;;4.15;;
13244;SDS011;6689;53.400;12.486;2023-05-09T00:25:13;5.97;;;4.32;;
13244;SDS011;6689;53.400;12.486;2023-05-09T00:27:40;7.32;;;4.35;;
13244;SDS011;6689;53.400;12.486;2023-05-09T00:30:08;5.90;;;3.80;;
13244;SDS011;6689;53.400;12.486;2023-05-09T00:32:37;7.38;;;4.40;;
13244;SDS011;6689;53.400;12.486;2023-05-09T00:35:06;4.35;;;3.45;;
13244;SDS011;6689;53.400;12.486;2023-05-09T00:37:34;11.35;;;4.03;;
13244;SDS011;6689;53.400;12.486;2023-05-09T00:40:02;4.53;;;3.53;;
13244;SDS011;6689;53.400;12.486;2023-05-09T00:42:33;5.18;;;4.40;;
13244;SDS011;6689;53.400;12.486;2023-05-09T00:45:00;5.70;;;4.18;;
13244;SDS011;6689;53.400;12.486;2023-05-09T00:47:29;4.53;;;4.07;;
13244;SDS011;6689;53.400;12.486;2023-05-09T00:49:58;6.45;;;4.03;;
13244;SDS011;6689;53.400;12.486;2023-05-09T00:52:26;6.60;;;4.63;;
13244;SDS011;6689;53.400;12.486;2023-05-09T00:54:54;5.90;;;4.07;;
13244;SDS011;6689;53.400;12.486;2023-05-09T00:57:22;6.82;;;4.13;;
13244;SDS011;6689;53.400;12.486;2023-05-09T00:59:49;6.18;;;4.03;;
13244;SDS011;6689;53.400;12.486;2023-05-09T01:02:16;7.57;;;4.25;;
13244;SDS011;6689;53.400;12.486;2023-05-09T01:04:44;8.05;;;4.25;;
13244;SDS011;6689;53.400;12.486;2023-05-09T01:07:15;7.25;;;4.32;;
13244;SDS011;6689;53.400;12.486;2023-05-09T01:09:49;5.22;;;4.20;;
13244;SDS011;6689;53.400;12.486;2023-05-09T01:12:28;7.20;;;4.40;;
13244;SDS011;6689;53.400;12.486;2023-05-09T01:15:04;5.60;;;4.20;;
13244;SDS011;6689;53.400;12.486;2023-05-09T01:17:38;6.60;;;4.18;;
13244;SDS011;6689;53.400;12.486;2023-05-09T01:20:13;5.18;;;3.75;;
13244;SDS011;6689;53.400;12.486;2023-05-09T01:22:59;5.70;;;4.07;;
13244;SDS011;6689;53.400;12.486;2023-05-09T01:25:48;8.45;;;4.75;;
13244;SDS011;6689;53.400;12.486;2023-05-09T01:28:40;5.57;;;4.00;;
13244;SDS011;6689;53.400;12.486;2023-05-09T01:31:27;8.00;;;4.00;;
13244;SDS011;6689;53.400;12.486;2023-05-09T01:33:58;12.00;;;4.15;;
13244;SDS011;6689;53.400;12.486;2023-05-09T01:36:29;8.07;;;4.32;;
13244;SDS011;6689;53.400;12.486;2023-05-09T01:38:59;8.70;;;4.68;;
13244;SDS011;6689;53.400;12.486;2023-05-09T01:41:29;7.53;;;4.40;;
13244;SDS011;6689;53.400;12.486;2023-05-09T01:43:59;10.02;;;4.43;;
13244;SDS011;6689;53.400;12.486;2023-05-09T01:46:32;7.00;;;4.20;;
13244;SDS011;6689;53.400;12.486;2023-05-09T01:49:00;6.97;;;4.68;;
13244;SDS011;6689;53.400;12.486;2023-05-09T01:51:28;7.32;;;3.85;;
13244;SDS011;6689;53.400;12.486;2023-05-09T01:53:57;5.47;;;4.35;;
13244;SDS011;6689;53.400;12.486;2023-05-09T01:56:27;8.07;;;4.30;;
13244;SDS011;6689;53.400;12.486;2023-05-09T01:58:56;6.10;;;4.03;;
13244;SDS011;6689;53.400;12.486;2023-05-09T02:01:24;10.13;;;4.55;;
13244;SDS011;6689;53.400;12.486;2023-05-09T02:03:53;5.95;;;4.40;;
13244;SDS011;6689;53.400;12.486;2023-05-09T02:06:22;5.65;;;4.18;;
13244;SDS011;6689;53.400;12.486;2023-05-09T02:08:53;6.22;;;3.40;;
13244;SDS011;6689;53.400;12.486;2023-05-09T02:11:21;4.20;;;3.80;;
13244;SDS011;6689;53.400;12.486;2023-05-09T02:13:49;7.22;;;3.85;;
13244;SDS011;6689;53.400;12.486;2023-05-09T02:16:16;6.38;;;3.58;;
13244;SDS011;6689;53.400;12.486;2023-05-09T02:18:45;8.77;;;4.40;;
13244;SDS011;6689;53.400;12.486;2023-05-09T02:21:14;5.97;;;4.00;;
13244;SDS011;6689;53.400;12.486;2023-05-09T02:23:41;7.88;;;4.35;;
13244;SDS011;6689;53.400;12.486;2023-05-09T02:26:08;6.45;;;4.40;;
13244;SDS011;6689;53.400;12.486;2023-05-09T02:28:36;4.80;;;3.63;;
13244;SDS011;6689;53.400;12.486;2023-05-09T02:31:04;6.68;;;3.85;;
13244;SDS011;6689;53.400;12.486;2023-05-09T02:33:33;4.30;;;3.72;;
13244;SDS011;6689;53.400;12.486;2023-05-09T02:36:03;7.43;;;4.03;;
13244;SDS011;6689;53.400;12.486;2023-05-09T02:38:34;7.47;;;3.75;;
13244;SDS011;6689;53.400;12.486;2023-05-09T02:41:03;8.68;;;4.53;;
13244;SDS011;6689;53.400;12.486;2023-05-09T02:43:31;5.13;;;3.53;;
13244;SDS011;6689;53.400;12.486;2023-05-09T02:45:58;5.18;;;3.35;;
13244;SDS011;6689;53.400;12.486;2023-05-09T02:48:25;5.28;;;3.97;;
13244;SDS011;6689;53.400;12.486;2023-05-09T02:50:53;6.25;;;3.72;;
13244;SDS011;6689;53.400;12.486;2023-05-09T02:53:21;6.05;;;4.28;;
13244;SDS011;6689;53.400;12.486;2023-05-09T02:55:49;7.47;;;3.78;;
13244;SDS011;6689;53.400;12.486;2023-05-09T02:58:18;5.65;;;3.97;;
13244;SDS011;6689;53.400;12.486;2023-05-09T03:00:45;6.95;;;3.47;;
13244;SDS011;6689;53.400;12.486;2023-05-09T03:03:12;4.95;;;3.80;;
13244;SDS011;6689;53.400;12.486;2023-05-09T03:05:41;5.72;;;3.67;;
13244;SDS011;6689;53.400;12.486;2023-05-09T03:08:09;9.38;;;4.07;;
13244;SDS011;6689;53.400;12.486;2023-05-09T03:10:36;5.72;;;3.58;;
13244;SDS011;6689;53.400;12.486;2023-05-09T03:13:05;4.88;;;3.65;;
13244;SDS011;6689;53.400;12.486;2023-05-09T03:15:32;4.85;;;3.53;;
13244;SDS011;6689;53.400;12.486;2023-05-09T03:17:59;4.30;;;3.75;;
13244;SDS011;6689;53.400;12.486;2023-05-09T03:20:27;5.68;;;3.92;;
13244;SDS011;6689;53.400;12.486;2023-05-09T03:22:54;5.15;;;3.28;;
13244;SDS011;6689;53.400;12.486;2023-05-09T03:25:21;4.95;;;3.13;;
13244;SDS011;6689;53.400;12.486;2023-05-09T03:27:50;8.10;;;3.80;;
13244;SDS011;6689;53.400;12.486;2023-05-09T03:30:19;5.80;;;3.60;;
13244;SDS011;6689;53.400;12.486;2023-05-09T03:32:46;8.07;;;3.95;;
13244;SDS011;6689;53.400;12.486;2023-05-09T03:35:13;5.13;;;3.60;;
13244;SDS011;6689;53.400;12.486;2023-05-09T03:37:40;4.68;;;3.15;;
13244;SDS011;6689;53.400;12.486;2023-05-09T03:40:08;4.97;;;3.83;;
13244;SDS011;6689;53.400;12.486;2023-05-09T03:42:36;6.88;;;3.75;;
13244;SDS011;6689;53.400;12.486;2023-05-09T03:45:04;10.30;;;3.35;;
13244;SDS011;6689;53.400;12.486;2023-05-09T03:47:33;5.18;;;3.88;;
13244;SDS011;6689;53.400;12.486;2023-05-09T03:50:01;19.42;;;4.05;;
13244;SDS011;6689;53.400;12.486;2023-05-09T03:52:29;5.05;;;3.53;;
13244;SDS011;6689;53.400;12.486;2023-05-09T03:54:57;6.47;;;3.25;;
13244;SDS011;6689;53.400;12.486;2023-05-09T03:57:24;6.68;;;3.17;;
13244;SDS011;6689;53.400;12.486;2023-05-09T03:59:51;5.03;;;3.42;;
13244;SDS011;6689;53.400;12.486;2023-05-09T04:02:18;4.35;;;3.45;;
13244;SDS011;6689;53.400;12.486;2023-05-09T04:04:47;6.60;;;3.70;;
13244;SDS011;6689;53.400;12.486;2023-05-09T04:07:15;5.60;;;3.53;;
13244;SDS011;6689;53.400;12.486;2023-05-09T04:09:42;4.10;;;2.92;;
13244;SDS011;6689;53.400;12.486;2023-05-09T04:12:09;9.32;;;3.85;;
13244;SDS011;6689;53.400;12.486;2023-05-09T04:14:37;5.75;;;3.20;;
13244;SDS011;6689;53.400;12.486;2023-05-09T04:17:04;6.65;;;3.28;;
13244;SDS011;6689;53.400;12.486;2023-05-09T04:19:32;6.15;;;3.10;;
13244;SDS011;6689;53.400;12.486;2023-05-09T04:22:01;7.60;;;3.72;;
13244;SDS011;6689;53.400;12.486;2023-05-09T04:24:28;4.57;;;2.83;;
13244;SDS011;6689;53.400;12.486;2023-05-09T04:26:55;5.22;;;2.92;;
13244;SDS011;6689;53.400;12.486;2023-05-09T04:29:23;5.47;;;3.60;;
13244;SDS011;6689;53.400;12.486;2023-05-09T04:31:50;4.03;;;3.40;;
13244;SDS011;6689;53.400;12.486;2023-05-09T04:34:17;4.65;;;3.42;;
13244;SDS011;6689;53.400;12.486;2023-05-09T04:36:45;4.63;;;3.35;;
13244;SDS011;6689;53.400;12.486;2023-05-09T04:39:13;4.18;;;2.83;;
13244;SDS011;6689;53.400;12.486;2023-05-09T04:41:41;4.68;;;3.10;;
13244;SDS011;6689;53.400;12.486;2023-05-09T04:44:10;7.03;;;3.33;;
13244;SDS011;6689;53.400;12.486;2023-05-09T04:46:38;8.32;;;3.45;;
13244;SDS011;6689;53.400;12.486;2023-05-09T04:49:05;3.95;;;2.92;;
13244;SDS011;6689;53.400;12.486;2023-05-09T04:51:33;5.40;;;2.92;;
13244;SDS011;6689;53.400;12.486;2023-05-09T04:54:00;4.05;;;2.90;;
13244;SDS011;6689;53.400;12.486;2023-05-09T04:56:29;7.03;;;3.00;;
13244;SDS011;6689;53.400;12.486;2023-05-09T04:58:56;5.03;;;3.10;;
13244;SDS011;6689;53.400;12.486;2023-05-09T05:01:26;5.32;;;3.22;;
13244;SDS011;6689;53.400;12.486;2023-05-09T05:03:53;5.53;;;3.25;;
13244;SDS011;6689;53.400;12.486;2023-05-09T05:06:20;4.35;;;2.85;;
13244;SDS011;6689;53.400;12.486;2023-05-09T05:08:48;6.60;;;3.58;;
13244;SDS011;6689;53.400;12.486;2023-05-09T05:11:15;3.90;;;2.67;;
13244;SDS011;6689;53.400;12.486;2023-05-09T05:13:44;4.43;;;3.05;;
13244;SDS011;6689;53.400;12.486;2023-05-09T05:16:11;9.50;;;3.05;;
13244;SDS011;6689;53.400;12.486;2023-05-09T05:18:39;4.22;;;3.20;;
13244;SDS011;6689;53.400;12.486;2023-05-09T05:21:06;3.95;;;2.85;;
13244;SDS011;6689;53.400;12.486;2023-05-09T05:23:34;4.97;;;3.20;;
13244;SDS011;6689;53.400;12.486;2023-05-09T05:26:03;3.75;;;2.67;;
13244;SDS011;6689;53.400;12.486;2023-05-09T05:28:30;5.43;;;3.08;;
13244;SDS011;6689;53.400;12.486;2023-05-09T05:30:59;4.38;;;2.78;;
13244;SDS011;6689;53.400;12.486;2023-05-09T05:33:26;6.15;;;3.22;;
13244;SDS011;6689;53.400;12.486;2023-05-09T05:35:53;4.13;;;2.83;;
13244;SDS011;6689;53.400;12.486;2023-05-09T05:38:21;6.25;;;3.22;;
13244;SDS011;6689;53.400;12.486;2023-05-09T05:40:48;3.55;;;2.95;;
13244;SDS011;6689;53.400;12.486;2023-05-09T05:43:15;5.13;;;2.80;;
13244;SDS011;6689;53.400;12.486;2023-05-09T05:45:42;5.30;;;3.25;;
13244;SDS011;6689;53.400;12.486;2023-05-09T05:48:11;3.65;;;2.80;;
13244;SDS011;6689;53.400;12.486;2023-05-09T05:50:39;4.68;;;2.70;;
13244;SDS011;6689;53.400;12.486;2023-05-09T05:53:06;4.80;;;3.15;;
13244;SDS011;6689;53.400;12.486;2023-05-09T05:55:33;5.07;;;3.42;;
13244;SDS011;6689;53.400;12.486;2023-05-09T05:58:00;5.90;;;3.35;;
13244;SDS011;6689;53.400;12.486;2023-05-09T06:00:28;5.22;;;3.33;;
13244;SDS011;6689;53.400;12.486;2023-05-09T06:02:55;8.35;;;3.13;;
13244;SDS011;6689;53.400;12.486;2023-05-09T06:05:23;7.13;;;3.10;;
13244;SDS011;6689;53.400;12.486;2023-05-09T06:07:51;4.57;;;3.40;;
13244;SDS011;6689;53.400;12.486;2023-05-09T06:10:18;3.35;;;2.75;;
13244;SDS011;6689;53.400;12.486;2023-05-09T06:12:46;6.43;;;2.90;;
13244;SDS011;6689;53.400;12.486;2023-05-09T06:15:13;7.72;;;2.90;;
13244;SDS011;6689;53.400;12.486;2023-05-09T06:17:41;6.10;;;2.85;;
13244;SDS011;6689;53.400;12.486;2023-05-09T06:20:08;6.18;;;3.42;;
13244;SDS011;6689;53.400;12.486;2023-05-09T06:22:37;6.00;;;3.20;;
13244;SDS011;6689;53.400;12.486;2023-05-09T06:25:05;6.72;;;3.50;;
13244;SDS011;6689;53.400;12.486;2023-05-09T06:27:32;5.00;;;3.08;;
13244;SDS011;6689;53.400;12.486;2023-05-09T06:30:00;4.28;;;3.35;;
13244;SDS011;6689;53.400;12.486;2023-05-09T06:32:27;5.32;;;3.20;;
13244;SDS011;6689;53.400;12.486;2023-05-09T06:34:54;6.35;;;3.60;;
13244;SDS011;6689;53.400;12.486;2023-05-09T06:37:22;4.45;;;3.15;;
13244;SDS011;6689;53.400;12.486;2023-05-09T06:39:51;4.10;;;3.40;;
13244;SDS011;6689;53.400;12.486;2023-05-09T06:42:18;5.00;;;3.50;;
13244;SDS011;6689;53.400;12.486;2023-05-09T06:44:46;5.10;;;3.08;;
13244;SDS011;6689;53.400;12.486;2023-05-09T06:47:13;6.47;;;3.60;;
13244;SDS011;6689;53.400;12.486;2023-05-09T06:49:40;6.40;;;3.08;;
13244;SDS011;6689;53.400;12.486;2023-05-09T06:52:07;5.97;;;3.67;;
13244;SDS011;6689;53.400;12.486;2023-05-09T06:54:34;8.63;;;3.63;;
13244;SDS011;6689;53.400;12.486;2023-05-09T06:57:03;4.35;;;3.42;;
13244;SDS011;6689;53.400;12.486;2023-05-09T06:59:30;5.43;;;3.45;;
13244;SDS011;6689;53.400;12.486;2023-05-09T07:01:58;8.57;;;3.38;;
13244;SDS011;6689;53.400;12.486;2023-05-09T07:04:25;4.03;;;3.03;;
13244;SDS011;6689;53.400;12.486;2023-05-09T07:06:54;6.65;;;3.70;;
13244;SDS011;6689;53.400;12.486;2023-05-09T07:09:23;6.32;;;3.15;;
13244;SDS011;6689;53.400;12.486;2023-05-09T07:11:52;4.75;;;3.28;;
13244;SDS011;6689;53.400;12.486;2023-05-09T07:14:21;8.15;;;3.67;;
13244;SDS011;6689;53.400;12.486;2023-05-09T07:16:49;5.45;;;3.50;;
13244;SDS011;6689;53.400;12.486;2023-05-09T07:19:17;5.63;;;3.53;;
13244;SDS011;6689;53.400;12.486;2023-05-09T07:21:44;5.75;;;3.83;;
13244;SDS011;6689;53.400;12.486;2023-05-09T07:24:11;8.50;;;3.38;;
13244;SDS011;6689;53.400;12.486;2023-05-09T07:26:38;5.18;;;3.70;;
13244;SDS011;6689;53.400;12.486;2023-05-09T07:29:06;6.15;;;3.78;;
13244;SDS011;6689;53.400;12.486;2023-05-09T07:31:34;4.82;;;3.53;;
13244;SDS011;6689;53.400;12.486;2023-05-09T07:34:04;4.20;;;3.05;;
13244;SDS011;6689;53.400;12.486;2023-05-09T07:36:31;5.28;;;3.50;;
13244;SDS011;6689;53.400;12.486;2023-05-09T07:38:59;4.80;;;3.67;;
13244;SDS011;6689;53.400;12.486;2023-05-09T07:41:26;10.15;;;3.42;;
13244;SDS011;6689;53.400;12.486;2023-05-09T07:43:53;6.13;;;4.45;;
13244;SDS011;6689;53.400;12.486;2023-05-09T07:46:20;5.53;;;3.70;;
13244;SDS011;6689;53.400;12.486;2023-05-09T07:48:49;6.32;;;3.15;;
13244;SDS011;6689;53.400;12.486;2023-05-09T07:51:16;5.22;;;3.42;;
13244;SDS011;6689;53.400;12.486;2023-05-09T07:53:44;6.35;;;3.50;;
13244;SDS011;6689;53.400;12.486;2023-05-09T07:56:14;3.83;;;2.78;;
13244;SDS011;6689;53.400;12.486;2023-05-09T07:58:41;4.32;;;3.47;;
13244;SDS011;6689;53.400;12.486;2023-05-09T08:01:08;7.63;;;3.25;;
13244;SDS011;6689;53.400;12.486;2023-05-09T08:03:35;4.47;;;3.63;;
13244;SDS011;6689;53.400;12.486;2023-05-09T08:06:04;5.43;;;3.10;;
13244;SDS011;6689;53.400;12.486;2023-05-09T08:08:31;5.65;;;3.90;;
13244;SDS011;6689;53.400;12.486;2023-05-09T08:10:59;5.28;;;3.47;;
13244;SDS011;6689;53.400;12.486;2023-05-09T08:13:26;4.53;;;3.22;;
13244;SDS011;6689;53.400;12.486;2023-05-09T08:15:53;5.57;;;3.22;;
13244;SDS011;6689;53.400;12.486;2023-05-09T08:18:21;4.82;;;3.15;;
13244;SDS011;6689;53.400;12.486;2023-05-09T08:20:51;7.70;;;2.92;;
13244;SDS011;6689;53.400;12.486;2023-05-09T08:23:21;6.45;;;3.65;;
13244;SDS011;6689;53.400;12.486;2023-05-09T08:25:51;4.85;;;3.13;;
13244;SDS011;6689;53.400;12.486;2023-05-09T08:28:19;4.80;;;3.50;;
13244;SDS011;6689;53.400;12.486;2023-05-09T08:30:48;5.93;;;2.95;;
13244;SDS011;6689;53.400;12.486;2023-05-09T08:33:16;10.65;;;3.30;;
13244;SDS011;6689;53.400;12.486;2023-05-09T08:35:43;7.93;;;3.17;;
13244;SDS011;6689;53.400;12.486;2023-05-09T08:38:10;4.28;;;3.17;;
13244;SDS011;6689;53.400;12.486;2023-05-09T08:40:39;5.55;;;2.72;;
13244;SDS011;6689;53.400;12.486;2023-05-09T08:43:07;8.07;;;3.30;;
13244;SDS011;6689;53.400;12.486;2023-05-09T08:45:38;5.85;;;3.08;;
13244;SDS011;6689;53.400;12.486;2023-05-09T08:48:08;4.90;;;2.80;;
13244;SDS011;6689;53.400;12.486;2023-05-09T08:50:35;4.50;;;3.10;;
13244;SDS011;6689;53.400;12.486;2023-05-09T08:53:04;3.08;;;2.38;;
13244;SDS011;6689;53.400;12.486;2023-05-09T08:55:32;3.97;;;2.85;;
13244;SDS011;6689;53.400;12.486;2023-05-09T08:58:04;4.15;;;2.72;;
13244;SDS011;6689;53.400;12.486;2023-05-09T09:00:31;5.55;;;2.78;;
13244;SDS011;6689;53.400;12.486;2023-05-09T09:03:00;7.28;;;3.28;;
13244;SDS011;6689;53.400;12.486;2023-05-09T09:05:29;4.53;;;2.72;;
13244;SDS011;6689;53.400;12.486;2023-05-09T09:07:58;5.13;;;3.20;;
13244;SDS011;6689;53.400;12.486;2023-05-09T09:10:26;3.13;;;2.72;;
13244;SDS011;6689;53.400;12.486;2023-05-09T09:12:57;5.45;;;2.97;;
13244;SDS011;6689;53.400;12.486;2023-05-09T09:15:27;3.47;;;2.80;;
13244;SDS011;6689;53.400;12.486;2023-05-09T09:17:57;3.33;;;2.33;;
13244;SDS011;6689;53.400;12.486;2023-05-09T09:20:30;6.53;;;2.60;;
13244;SDS011;6689;53.400;12.486;2023-05-09T09:22:59;3.75;;;2.47;;
13244;SDS011;6689;53.400;12.486;2023-05-09T09:25:29;4.35;;;2.75;;
13244;SDS011;6689;53.400;12.486;2023-05-09T09:27:56;3.83;;;2.50;;
13244;SDS011;6689;53.400;12.486;2023-05-09T09:30:24;3.90;;;2.70;;
13244;SDS011;6689;53.400;12.486;2023-05-09T09:32:53;5.30;;;2.60;;
13244;SDS011;6689;53.400;12.486;2023-05-09T09:35:20;4.63;;;2.63;;
13244;SDS011;6689;53.400;12.486;2023-05-09T09:37:48;4.97;;;2.65;;
13244;SDS011;6689;53.400;12.486;2023-05-09T09:40:25;5.55;;;2.97;;
13244;SDS011;6689;53.400;12.486;2023-05-09T09:42:53;4.82;;;2.42;;
13244;SDS011;6689;53.400;12.486;2023-05-09T09:45:22;4.85;;;2.83;;
13244;SDS011;6689;53.400;12.486;2023-05-09T09:47:50;3.00;;;2.17;;
13244;SDS011;6689;53.400;12.486;2023-05-09T09:50:20;3.88;;;2.22;;
13244;SDS011;6689;53.400;12.486;2023-05-09T09:52:49;6.72;;;2.70;;
13244;SDS011;6689;53.400;12.486;2023-05-09T09:55:17;4.03;;;2.58;;
13244;SDS011;6689;53.400;12.486;2023-05-09T09:57:46;3.13;;;2.40;;
13244;SDS011;6689;53.400;12.486;2023-05-09T10:00:14;6.93;;;2.72;;
13244;SDS011;6689;53.400;12.486;2023-05-09T10:02:46;5.47;;;2.88;;
13244;SDS011;6689;53.400;12.486;2023-05-09T10:05:21;4.25;;;2.85;;
13244;SDS011;6689;53.400;12.486;2023-05-09T10:07:49;4.03;;;2.25;;
13244;SDS011;6689;53.400;12.486;2023-05-09T10:10:19;3.95;;;2.67;;
13244;SDS011;6689;53.400;12.486;2023-05-09T10:12:47;7.13;;;2.80;;
13244;SDS011;6689;53.400;12.486;2023-05-09T10:15:16;4.10;;;2.40;;
13244;SDS011;6689;53.400;12.486;2023-05-09T10:17:46;5.43;;;2.67;;
13244;SDS011;6689;53.400;12.486;2023-05-09T10:20:17;4.15;;;2.22;;
13244;SDS011;6689;53.400;12.486;2023-05-09T10:22:49;3.07;;;2.77;;
13244;SDS011;6689;53.400;12.486;2023-05-09T10:25:24;9.07;;;2.47;;
13244;SDS011;6689;53.400;12.486;2023-05-09T10:27:58;5.78;;;2.10;;
13244;SDS011;6689;53.400;12.486;2023-05-09T10:30:27;3.55;;;2.38;;
13244;SDS011;6689;53.400;12.486;2023-05-09T10:33:01;5.10;;;2.65;;
13244;SDS011;6689;53.400;12.486;2023-05-09T10:35:31;6.22;;;2.70;;
13244;SDS011;6689;53.400;12.486;2023-05-09T10:38:01;10.02;;;2.55;;
13244;SDS011;6689;53.400;12.486;2023-05-09T10:40:29;6.00;;;2.90;;
13244;SDS011;6689;53.400;12.486;2023-05-09T10:42:57;15.15;;;4.68;;
13244;SDS011;6689;53.400;12.486;2023-05-09T10:45:25;4.93;;;2.53;;
13244;SDS011;6689;53.400;12.486;2023-05-09T10:47:53;5.53;;;2.50;;
13244;SDS011;6689;53.400;12.486;2023-05-09T10:50:21;3.78;;;2.55;;
13244;SDS011;6689;53.400;12.486;2023-05-09T10:53:07;3.65;;;2.28;;
13244;SDS011;6689;53.400;12.486;2023-05-09T10:55:38;4.13;;;2.20;;
13244;SDS011;6689;53.400;12.486;2023-05-09T10:58:19;7.22;;;2.50;;
13244;SDS011;6689;53.400;12.486;2023-05-09T11:00:47;4.43;;;2.35;;
13244;SDS011;6689;53.400;12.486;2023-05-09T11:03:15;5.47;;;2.00;;
13244;SDS011;6689;53.400;12.486;2023-05-09T11:05:44;3.55;;;2.53;;
13244;SDS011;6689;53.400;12.486;2023-05-09T11:08:22;3.13;;;2.20;;
13244;SDS011;6689;53.400;12.486;2023-05-09T11:10:51;3.97;;;2.17;;
13244;SDS011;6689;53.400;12.486;2023-05-09T11:13:19;4.32;;;1.98;;
13244;SDS011;6689;53.400;12.486;2023-05-09T11:16:04;6.72;;;2.08;;
13244;SDS011;6689;53.400;12.486;2023-05-09T11:18:48;4.75;;;2.08;;
13244;SDS011;6689;53.400;12.486;2023-05-09T11:21:17;7.47;;;2.53;;
13244;SDS011;6689;53.400;12.486;2023-05-09T11:23:47;2.85;;;2.33;;
13244;SDS011;6689;53.400;12.486;2023-05-09T11:26:15;4.00;;;2.55;;
13244;SDS011;6689;53.400;12.486;2023-05-09T11:28:50;4.60;;;2.50;;
13244;SDS011;6689;53.400;12.486;2023-05-09T11:31:20;5.97;;;2.33;;
13244;SDS011;6689;53.400;12.486;2023-05-09T11:33:48;4.93;;;2.17;;
13244;SDS011;6689;53.400;12.486;2023-05-09T11:36:27;5.25;;;2.03;;
13244;SDS011;6689;53.400;12.486;2023-05-09T11:41:37;4.45;;;2.00;;
13244;SDS011;6689;53.400;12.486;2023-05-09T11:44:14;5.88;;;2.40;;
13244;SDS011;6689;53.400;12.486;2023-05-09T11:46:43;4.43;;;2.10;;
13244;SDS011;6689;53.400;12.486;2023-05-09T11:49:11;10.00;;;2.70;;
13244;SDS011;6689;53.400;12.486;2023-05-09T11:51:38;4.05;;;1.95;;
13244;SDS011;6689;53.400;12.486;2023-05-09T11:54:08;3.47;;;2.08;;
13244;SDS011;6689;53.400;12.486;2023-05-09T11:56:39;4.90;;;2.30;;
13244;SDS011;6689;53.400;12.486;2023-05-09T11:59:07;8.63;;;2.00;;
13244;SDS011;6689;53.400;12.486;2023-05-09T12:01:35;3.17;;;2.22;;
13244;SDS011;6689;53.400;12.486;2023-05-09T12:04:06;6.25;;;2.45;;
13244;SDS011;6689;53.400;12.486;2023-05-09T12:06:45;5.15;;;2.33;;
13244;SDS011;6689;53.400;12.486;2023-05-09T12:09:14;6.97;;;2.50;;
13244;SDS011;6689;53.400;12.486;2023-05-09T12:11:46;5.20;;;2.83;;
13244;SDS011;6689;53.400;12.486;2023-05-09T12:14:24;9.10;;;2.53;;
13244;SDS011;6689;53.400;12.486;2023-05-09T12:16:52;4.18;;;2.30;;
13244;SDS011;6689;53.400;12.486;2023-05-09T12:19:20;4.53;;;2.15;;
13244;SDS011;6689;53.400;12.486;2023-05-09T12:21:52;4.18;;;2.30;;
13244;SDS011;6689;53.400;12.486;2023-05-09T12:24:25;4.75;;;2.55;;
13244;SDS011;6689;53.400;12.486;2023-05-09T12:26:53;3.70;;;2.28;;
13244;SDS011;6689;53.400;12.486;2023-05-09T12:29:22;3.17;;;2.20;;
13244;SDS011;6689;53.400;12.486;2023-05-09T12:31:50;7.57;;;2.95;;
13244;SDS011;6689;53.400;12.486;2023-05-09T12:34:19;4.38;;;2.30;;
13244;SDS011;6689;53.400;12.486;2023-05-09T12:36:47;10.05;;;3.35;;
13244;SDS011;6689;53.400;12.486;2023-05-09T12:39:16;4.28;;;2.65;;
13244;SDS011;6689;53.400;12.486;2023-05-09T12:41:47;6.95;;;2.25;;
13244;SDS011;6689;53.400;12.486;2023-05-09T12:44:22;6.15;;;2.10;;
13244;SDS011;6689;53.400;12.486;2023-05-09T12:46:53;3.90;;;2.15;;
13244;SDS011;6689;53.400;12.486;2023-05-09T12:49:24;6.57;;;2.17;;
13244;SDS011;6689;53.400;12.486;2023-05-09T12:51:52;12.43;;;2.92;;
13244;SDS011;6689;53.400;12.486;2023-05-09T12:54:21;4.13;;;2.30;;
13244;SDS011;6689;53.400;12.486;2023-05-09T12:56:51;7.60;;;2.70;;
13244;SDS011;6689;53.400;12.486;2023-05-09T12:59:21;5.05;;;2.17;;
13244;SDS011;6689;53.400;12.486;2023-05-09T13:01:52;4.82;;;2.60;;
13244;SDS011;6689;53.400;12.486;2023-05-09T13:04:21;6.88;;;2.35;;
13244;SDS011;6689;53.400;12.486;2023-05-09T13:06:49;10.40;;;3.08;;
13244;SDS011;6689;53.400;12.486;2023-05-09T13:09:18;6.07;;;2.92;;
13244;SDS011;6689;53.400;12.486;2023-05-09T13:11:45;6.10;;;2.63;;
13244;SDS011;6689;53.400;12.486;2023-05-09T13:14:14;4.95;;;2.70;;
13244;SDS011;6689;53.400;12.486;2023-05-09T13:16:42;8.73;;;2.63;;
13244;SDS011;6689;53.400;12.486;2023-05-09T13:19:12;3.40;;;2.38;;
13244;SDS011;6689;53.400;12.486;2023-05-09T13:21:40;7.97;;;2.20;;
13244;SDS011;6689;53.400;12.486;2023-05-09T13:24:07;7.57;;;2.78;;
13244;SDS011;6689;53.400;12.486;2023-05-09T13:26:34;7.75;;;2.67;;
13244;SDS011;6689;53.400;12.486;2023-05-09T13:29:02;3.42;;;2.15;;
13244;SDS011;6689;53.400;12.486;2023-05-09T13:31:32;8.63;;;2.58;;
13244;SDS011;6689;53.400;12.486;2023-05-09T13:33:59;8.90;;;3.40;;
13244;SDS011;6689;53.400;12.486;2023-05-09T13:36:26;7.97;;;2.55;;
13244;SDS011;6689;53.400;12.486;2023-05-09T13:38:53;6.32;;;2.00;;
13244;SDS011;6689;53.400;12.486;2023-05-09T13:41:20;6.50;;;2.30;;
13244;SDS011;6689;53.400;12.486;2023-05-09T13:43:48;5.85;;;2.40;;
13244;SDS011;6689;53.400;12.486;2023-05-09T13:46:15;4.82;;;2.58;;
13244;SDS011;6689;53.400;12.486;2023-05-09T13:48:44;4.25;;;2.40;;
13244;SDS011;6689;53.400;12.486;2023-05-09T13:51:14;4.45;;;2.90;;
13244;SDS011;6689;53.400;12.486;2023-05-09T13:53:47;5.80;;;3.30;;
13244;SDS011;6689;53.400;12.486;2023-05-09T13:56:15;5.90;;;2.70;;
13244;SDS011;6689;53.400;12.486;2023-05-09T13:58:42;7.75;;;2.65;;
13244;SDS011;6689;53.400;12.486;2023-05-09T14:01:09;5.30;;;2.65;;
13244;SDS011;6689;53.400;12.486;2023-05-09T14:03:36;5.88;;;2.65;;
13244;SDS011;6689;53.400;12.486;2023-05-09T14:06:05;4.68;;;2.67;;
13244;SDS011;6689;53.400;12.486;2023-05-09T14:08:34;8.35;;;2.75;;
13244;SDS011;6689;53.400;12.486;2023-05-09T14:11:01;6.75;;;2.63;;
13244;SDS011;6689;53.400;12.486;2023-05-09T14:13:33;7.15;;;4.13;;
13244;SDS011;6689;53.400;12.486;2023-05-09T14:16:00;6.70;;;2.28;;
13244;SDS011;6689;53.400;12.486;2023-05-09T14:18:27;6.63;;;2.83;;
13244;SDS011;6689;53.400;12.486;2023-05-09T14:20:54;9.45;;;2.80;;
13244;SDS011;6689;53.400;12.486;2023-05-09T14:23:23;5.75;;;2.00;;
13244;SDS011;6689;53.400;12.486;2023-05-09T14:25:50;4.60;;;2.20;;
13244;SDS011;6689;53.400;12.486;2023-05-09T14:28:18;6.57;;;2.10;;
13244;SDS011;6689;53.400;12.486;2023-05-09T14:30:45;4.13;;;2.42;;
13244;SDS011;6689;53.400;12.486;2023-05-09T14:33:12;4.43;;;2.58;;
13244;SDS011;6689;53.400;12.486;2023-05-09T14:35:39;7.90;;;2.50;;
13244;SDS011;6689;53.400;12.486;2023-05-09T14:38:06;4.82;;;2.40;;
13244;SDS011;6689;53.400;12.486;2023-05-09T14:40:35;9.10;;;3.00;;
13244;SDS011;6689;53.400;12.486;2023-05-09T14:43:02;10.20;;;3.28;;
13244;SDS011;6689;53.400;12.486;2023-05-09T14:45:30;7.50;;;2.97;;
13244;SDS011;6689;53.400;12.486;2023-05-09T14:47:58;7.20;;;2.63;;
13244;SDS011;6689;53.400;12.486;2023-05-09T14:50:26;6.20;;;2.95;;
13244;SDS011;6689;53.400;12.486;2023-05-09T14:52:54;6.32;;;2.10;;
13244;SDS011;6689;53.400;12.486;2023-05-09T14:55:21;5.60;;;2.70;;
13244;SDS011;6689;53.400;12.486;2023-05-09T14:57:50;5.47;;;2.67;;
13244;SDS011;6689;53.400;12.486;2023-05-09T15:00:17;5.07;;;2.20;;